createdAt,value
2023-08-03T00:01:56.131Z,31.97
2023-08-03T00:04:26.917Z,31.97
2023-08-03T00:06:57.304Z,31.99
2023-08-03T00:09:28.336Z,32.01
2023-08-03T00:11:58.726Z,32.00
2023-08-03T00:14:29.374Z,32.00
2023-08-03T00:16:59.626Z,31.95
2023-08-03T00:19:29.932Z,31.91
2023-08-03T00:22:00.198Z,31.94
2023-08-03T00:24:30.430Z,31.98
2023-08-03T00:27:00.724Z,31.95
2023-08-03T00:29:31.258Z,31.97
2023-08-03T00:32:03.806Z,31.94
2023-08-03T00:34:34.248Z,31.99
2023-08-03T00:37:05.367Z,32.00
2023-08-03T00:39:35.810Z,31.98
2023-08-03T00:42:08.021Z,32.03
2023-08-03T00:44:38.490Z,32.00
2023-08-03T00:47:10.785Z,31.97
2023-08-03T00:49:41.129Z,31.97
2023-08-03T00:52:11.782Z,31.97
2023-08-03T00:54:42.806Z,32.01
2023-08-03T00:57:14.972Z,32.02
2023-08-03T00:59:47.508Z,31.99
2023-08-03T01:02:17.916Z,32.03
2023-08-03T01:04:48.314Z,32.01
2023-08-03T01:07:20.416Z,32.03
2023-08-03T01:09:51.844Z,31.98
2023-08-03T01:12:22.642Z,32.03
2023-08-03T01:14:53.276Z,32.01
2023-08-03T01:17:24.877Z,32.04
2023-08-03T01:19:55.571Z,31.96
2023-08-03T01:22:26.884Z,31.90
2023-08-03T01:24:57.235Z,31.88
2023-08-03T01:27:28.157Z,31.99
2023-08-03T01:29:58.769Z,32.03
2023-08-03T01:32:29.378Z,31.99
2023-08-03T01:34:59.910Z,31.89
2023-08-03T01:37:30.445Z,31.85
2023-08-03T01:40:00.722Z,31.87
2023-08-03T01:42:31.159Z,31.89
2023-08-03T01:45:02.184Z,31.88
2023-08-03T01:47:32.571Z,31.91
2023-08-03T01:50:02.916Z,31.92
2023-08-03T01:52:33.263Z,31.93
2023-08-03T01:55:03.740Z,31.85
2023-08-03T01:57:35.153Z,31.83
2023-08-03T02:00:05.922Z,31.82
2023-08-03T02:02:43.254Z,31.84
2023-08-03T02:05:14.857Z,31.85
2023-08-03T02:07:50.408Z,31.88
2023-08-03T02:10:21.675Z,31.89
2023-08-03T02:12:52.285Z,31.87
2023-08-03T02:15:22.855Z,31.85
2023-08-03T02:17:53.274Z,31.87
2023-08-03T02:20:24.713Z,31.92
2023-08-03T02:22:55.107Z,31.92
2023-08-03T02:25:27.149Z,31.92
2023-08-03T02:27:57.804Z,31.87
2023-08-03T02:30:28.214Z,31.83
2023-08-03T02:32:58.667Z,31.80
2023-08-03T02:35:29.000Z,31.92
2023-08-03T02:38:02.036Z,31.85
2023-08-03T02:40:32.435Z,31.85
2023-08-03T02:43:03.415Z,31.89
2023-08-03T02:45:36.957Z,31.97
2023-08-03T02:48:09.017Z,32.01
2023-08-03T02:50:39.453Z,32.00
2023-08-03T02:53:14.279Z,31.97
2023-08-03T02:55:48.247Z,32.03
2023-08-03T02:58:19.458Z,32.00
2023-08-03T03:00:50.549Z,32.05
2023-08-03T03:03:21.550Z,32.10
2023-08-03T03:05:51.872Z,31.98
2023-08-03T03:08:22.615Z,32.05
2023-08-03T03:10:53.072Z,32.11
2023-08-03T03:13:23.501Z,31.99
2023-08-03T03:15:54.000Z,32.00
2023-08-03T03:18:25.605Z,31.99
2023-08-03T03:20:56.079Z,32.09
2023-08-03T03:23:26.318Z,32.15
2023-08-03T03:25:56.520Z,32.14
2023-08-03T03:28:26.890Z,32.19
2023-08-03T03:30:57.324Z,32.19
2023-08-03T03:33:27.763Z,32.11
2023-08-03T03:36:07.408Z,32.15
2023-08-03T03:38:37.789Z,32.21
2023-08-03T03:41:08.193Z,32.19
2023-08-03T03:43:42.927Z,32.18
2023-08-03T03:46:13.363Z,32.14
2023-08-03T03:48:45.104Z,32.23
2023-08-03T03:51:15.441Z,32.26
2023-08-03T03:53:46.024Z,32.18
2023-08-03T03:56:18.085Z,32.14
2023-08-03T03:58:48.437Z,32.17
2023-08-03T04:01:19.149Z,32.23
2023-08-03T04:03:53.561Z,32.28
2023-08-03T04:06:24.182Z,32.29
2023-08-03T04:08:54.557Z,32.28
2023-08-03T04:11:24.762Z,32.29
2023-08-03T04:13:56.747Z,32.32
2023-08-03T04:16:27.363Z,32.33
2023-08-03T04:18:57.648Z,32.31
2023-08-03T04:21:28.034Z,32.30
2023-08-03T04:23:58.826Z,32.33
2023-08-03T04:26:29.196Z,32.33
2023-08-03T04:29:00.119Z,32.35
2023-08-03T04:31:33.006Z,32.27
2023-08-03T04:34:04.585Z,32.32
2023-08-03T04:36:35.247Z,32.34
2023-08-03T04:39:06.893Z,32.31
2023-08-03T04:41:37.397Z,32.30
2023-08-03T04:44:07.875Z,32.26
2023-08-03T04:46:40.929Z,32.18
2023-08-03T04:49:13.834Z,32.27
2023-08-03T04:51:50.738Z,32.33
2023-08-03T04:54:24.348Z,32.35
2023-08-03T04:56:54.652Z,32.35
2023-08-03T04:59:26.099Z,32.34
2023-08-03T05:01:58.158Z,32.36
2023-08-03T05:04:28.947Z,32.33
2023-08-03T05:07:00.452Z,32.33
2023-08-03T05:09:31.006Z,32.31
2023-08-03T05:12:01.641Z,32.31
2023-08-03T05:14:32.292Z,32.33
2023-08-03T05:17:02.845Z,32.29
2023-08-03T05:19:33.759Z,32.26
2023-08-03T05:22:04.213Z,32.32
2023-08-03T05:24:34.556Z,32.35
2023-08-03T05:27:06.032Z,32.39
2023-08-03T05:29:36.373Z,32.36
2023-08-03T05:32:06.857Z,32.41
2023-08-03T05:34:37.131Z,32.38
2023-08-03T05:37:09.443Z,32.37
2023-08-03T05:39:39.761Z,32.32
2023-08-03T05:42:14.992Z,32.35
2023-08-03T05:44:45.431Z,32.33
2023-08-03T05:47:18.908Z,32.33
2023-08-03T05:49:49.626Z,32.37
2023-08-03T05:52:19.888Z,32.44
2023-08-03T05:54:52.728Z,32.41
2023-08-03T05:57:23.014Z,32.42
2023-08-03T05:59:53.145Z,32.35
2023-08-03T06:02:37.665Z,32.38
2023-08-03T06:05:10.505Z,32.38
2023-08-03T06:07:42.105Z,32.45
2023-08-03T06:10:13.831Z,32.38
2023-08-03T06:12:44.146Z,32.43
2023-08-03T06:15:14.485Z,32.37
2023-08-03T06:17:44.851Z,32.43
2023-08-03T06:20:18.360Z,32.39
2023-08-03T06:22:48.780Z,32.41
2023-08-03T06:25:20.238Z,32.42
2023-08-03T06:27:50.566Z,32.43
2023-08-03T06:30:21.784Z,32.43
2023-08-03T06:32:53.744Z,32.46
2023-08-03T06:35:36.076Z,32.43
2023-08-03T06:38:08.202Z,32.41
2023-08-03T06:40:39.629Z,32.42
2023-08-03T06:43:10.287Z,32.41
2023-08-03T06:45:40.910Z,32.44
2023-08-03T06:48:12.340Z,32.44
2023-08-03T06:50:42.657Z,32.42
2023-08-03T06:53:13.555Z,32.50
2023-08-03T06:55:44.087Z,32.44
2023-08-03T06:58:14.743Z,32.42
2023-08-03T07:00:45.372Z,32.42
2023-08-03T07:03:16.628Z,32.47
2023-08-03T07:05:47.347Z,32.42
2023-08-03T07:08:17.688Z,32.49
2023-08-03T07:10:48.023Z,32.50
2023-08-03T07:13:18.225Z,32.52
2023-08-03T07:15:48.572Z,32.42
2023-08-03T07:18:18.953Z,32.49
2023-08-03T07:20:49.367Z,32.55
2023-08-03T07:23:19.622Z,32.49
2023-08-03T07:25:49.903Z,32.48
2023-08-03T07:28:20.304Z,32.46
2023-08-03T07:30:50.654Z,32.43
2023-08-03T07:33:20.944Z,32.54
2023-08-03T07:35:51.214Z,32.51
2023-08-03T07:38:21.323Z,32.51
2023-08-03T07:40:51.538Z,32.57
2023-08-03T07:43:21.822Z,32.49
2023-08-03T07:45:52.140Z,32.54
2023-08-03T07:48:22.399Z,32.52
2023-08-03T07:50:52.709Z,32.60
2023-08-03T07:53:23.082Z,32.61
2023-08-03T07:55:53.395Z,32.53
2023-08-03T07:58:23.721Z,32.60
2023-08-03T08:00:53.910Z,32.59
2023-08-03T08:03:24.318Z,32.52
2023-08-03T08:05:54.705Z,32.54
2023-08-03T08:08:25.112Z,32.56
2023-08-03T08:11:10.466Z,32.50
2023-08-03T08:13:43.234Z,32.58
2023-08-03T08:16:17.096Z,32.51
2023-08-03T08:18:47.469Z,32.46
2023-08-03T08:21:17.679Z,32.49
2023-08-03T08:23:48.051Z,32.55
2023-08-03T08:26:20.581Z,32.46
2023-08-03T08:29:03.428Z,32.57
2023-08-03T08:34:09.811Z,32.58
2023-08-03T08:36:40.104Z,32.61
2023-08-03T08:39:10.559Z,32.60
2023-08-03T08:41:44.861Z,32.56
2023-08-03T08:44:18.507Z,32.56
2023-08-03T08:46:49.080Z,32.48
2023-08-03T08:51:58.134Z,32.50
2023-08-03T08:57:12.370Z,32.46
2023-08-03T09:00:05.908Z,32.45
2023-08-03T09:02:36.820Z,32.41
2023-08-03T09:06:23.820Z,32.40
2023-08-03T09:08:18.214Z,32.34
2023-08-03T09:10:59.485Z,32.33
2023-08-03T09:13:35.441Z,32.33
2023-08-03T09:16:06.322Z,32.28
2023-08-03T09:18:36.705Z,32.26
2023-08-03T09:29:03.440Z,32.35
2023-08-03T09:31:34.463Z,32.33
2023-08-03T09:34:04.824Z,32.32
2023-08-03T09:36:35.104Z,32.26
2023-08-03T09:44:26.775Z,32.15
2023-08-03T09:46:58.108Z,32.21
2023-08-03T09:49:29.511Z,32.11
2023-08-03T09:55:09.963Z,32.08
2023-08-03T09:57:45.889Z,32.12
2023-08-03T10:00:17.532Z,32.18
2023-08-03T10:03:04.397Z,32.17
2023-08-03T10:05:39.930Z,32.16
2023-08-03T10:08:23.767Z,32.14
2023-08-03T10:11:03.589Z,32.11
2023-08-03T10:13:37.906Z,32.16
2023-08-03T10:16:08.564Z,32.15
2023-08-03T10:21:14.402Z,32.18
2023-08-03T10:24:21.747Z,32.17
2023-08-03T10:27:01.064Z,32.15
2023-08-03T10:32:55.049Z,32.18
2023-08-03T10:35:42.316Z,32.16
2023-08-03T10:38:23.342Z,32.18
2023-08-03T10:41:25.622Z,32.11
2023-08-03T10:44:12.642Z,32.14
2023-08-03T10:46:53.021Z,32.13
2023-08-03T10:49:31.564Z,32.10
2023-08-03T10:52:28.383Z,32.10
2023-08-03T10:55:00.546Z,32.08
2023-08-03T10:57:33.054Z,32.06
2023-08-03T11:00:06.726Z,32.07
2023-08-03T11:02:40.323Z,32.09
2023-08-03T11:05:11.170Z,32.06
2023-08-03T11:07:43.993Z,32.07
2023-08-03T11:10:17.375Z,32.04
2023-08-03T11:12:48.600Z,32.03
2023-08-03T11:15:21.686Z,32.05
2023-08-03T11:17:55.925Z,32.01
2023-08-03T11:20:26.477Z,31.99
2023-08-03T11:22:56.861Z,32.00
2023-08-03T11:25:27.298Z,32.03
2023-08-03T11:27:57.613Z,32.02
2023-08-03T13:50:34.619Z,30.98
2023-08-03T13:53:05.193Z,31.02
2023-08-03T13:55:35.511Z,31.06
2023-08-03T13:58:08.040Z,31.14
2023-08-03T14:03:16.005Z,31.28
2023-08-03T14:18:51.260Z,31.56
2023-08-03T14:21:49.619Z,31.59
2023-08-03T14:24:12.183Z,31.64
2023-08-03T14:26:42.633Z,31.58
2023-08-03T14:29:13.665Z,31.57
2023-08-03T14:31:44.435Z,31.50
2023-08-03T14:34:15.068Z,31.50
2023-08-03T14:36:45.404Z,31.56
2023-08-03T14:39:17.368Z,31.55
2023-08-03T14:41:49.568Z,31.59
2023-08-03T14:44:20.851Z,31.65
2023-08-03T14:49:30.583Z,31.75
2023-08-03T14:54:34.019Z,31.78
2023-08-03T14:57:04.686Z,31.74
2023-08-03T14:59:35.003Z,31.69
2023-08-03T15:02:05.474Z,31.74
2023-08-03T15:04:38.466Z,31.76
2023-08-03T15:07:09.342Z,31.72
2023-08-03T15:09:39.695Z,31.75
2023-08-03T15:12:10.654Z,31.69
2023-08-03T15:14:48.475Z,31.76
2023-08-03T15:17:26.024Z,31.81
2023-08-03T15:20:00.366Z,31.82
2023-08-03T15:22:31.539Z,31.85
2023-08-03T15:25:03.629Z,31.89
2023-08-03T15:27:35.244Z,31.93
2023-08-03T15:30:32.314Z,31.86
2023-08-03T15:35:31.001Z,31.86
2023-08-03T15:38:03.599Z,31.87
2023-08-03T15:40:52.666Z,31.87
2023-08-03T15:43:30.093Z,31.84
2023-08-03T15:46:15.925Z,31.88
2023-08-03T15:51:24.172Z,31.89
2023-08-03T15:54:04.190Z,31.86
2023-08-03T15:56:41.668Z,31.86
2023-08-03T15:59:12.390Z,31.84
2023-08-03T16:01:42.733Z,31.88
2023-08-03T16:04:13.082Z,31.84
2023-08-03T16:06:43.474Z,31.89
2023-08-03T16:09:13.938Z,31.87
2023-08-03T16:14:17.865Z,31.88
2023-08-03T16:16:48.552Z,31.91
2023-08-03T16:19:19.255Z,31.87
2023-08-03T16:21:49.552Z,31.89
2023-08-03T16:24:19.817Z,31.88
2023-08-03T16:26:50.306Z,31.92
2023-08-03T16:29:21.093Z,31.87
2023-08-03T16:31:54.056Z,31.88
2023-08-03T16:34:27.945Z,31.88
2023-08-03T16:36:58.766Z,31.91
2023-08-03T16:39:29.760Z,31.87
2023-08-03T16:42:00.104Z,31.84
2023-08-03T16:44:30.385Z,31.82
2023-08-03T16:47:00.706Z,31.85
2023-08-03T16:49:31.242Z,31.87
2023-08-03T16:52:01.695Z,31.84
2023-08-03T16:54:32.251Z,31.82
2023-08-03T16:57:02.652Z,31.83
2023-08-03T16:59:32.973Z,31.83
2023-08-03T17:02:03.229Z,31.87
2023-08-03T17:04:37.100Z,31.85
2023-08-03T17:07:07.937Z,31.85
2023-08-03T17:09:38.969Z,31.82
2023-08-03T17:12:10.938Z,31.84
2023-08-03T17:14:42.105Z,31.85
2023-08-03T17:17:12.690Z,31.86
2023-08-03T17:19:42.984Z,31.82
2023-08-03T17:22:14.686Z,31.81
2023-08-03T17:24:44.997Z,31.79
2023-08-03T17:27:15.388Z,31.82
2023-08-03T17:29:46.396Z,31.79
2023-08-03T17:32:16.692Z,31.79
2023-08-03T17:34:47.040Z,31.77
2023-08-03T17:37:17.359Z,31.73
2023-08-03T17:39:47.630Z,31.74
2023-08-03T17:42:18.340Z,31.71
2023-08-03T17:44:49.766Z,31.70
2023-08-03T17:47:19.758Z,31.70
2023-08-03T17:49:49.956Z,31.66
2023-08-03T17:52:20.384Z,31.70
2023-08-03T17:54:50.739Z,31.70
2023-08-03T17:57:21.286Z,31.71
2023-08-03T17:59:53.362Z,31.63
2023-08-03T18:02:23.826Z,31.69
2023-08-03T18:04:54.946Z,31.68
2023-08-03T18:07:25.304Z,31.68
2023-08-03T18:09:56.429Z,31.67
2023-08-03T18:12:26.452Z,31.68
2023-08-03T18:14:56.583Z,31.68
2023-08-03T18:17:27.063Z,31.70
2023-08-03T18:19:58.177Z,31.65
2023-08-03T18:22:29.320Z,31.71
2023-08-03T18:24:59.616Z,31.72
2023-08-03T18:27:30.066Z,31.74
2023-08-03T18:30:00.830Z,31.70
2023-08-03T18:32:31.328Z,31.69
2023-08-03T18:35:01.740Z,31.69
2023-08-03T18:37:32.063Z,31.71
2023-08-03T18:40:02.589Z,31.70
2023-08-03T18:42:32.996Z,31.67
2023-08-03T18:45:05.476Z,31.66
2023-08-03T18:47:36.750Z,31.67
2023-08-03T18:50:07.474Z,31.67
2023-08-03T18:52:39.982Z,31.67
2023-08-03T18:55:10.986Z,31.68
2023-08-03T18:57:41.383Z,31.67
2023-08-03T19:00:12.525Z,31.63
2023-08-03T19:02:42.895Z,31.63
2023-08-03T19:05:13.776Z,31.65
2023-08-03T19:07:44.113Z,31.63
2023-08-03T19:10:14.556Z,31.62
2023-08-03T19:12:44.883Z,31.62
2023-08-03T19:15:18.349Z,31.62
2023-08-03T19:17:48.713Z,31.59
2023-08-03T19:20:19.563Z,31.62
2023-08-03T19:22:49.860Z,31.64
2023-08-03T19:25:20.605Z,31.65
2023-08-03T19:27:51.188Z,31.67
2023-08-03T19:30:23.160Z,31.64
2023-08-03T19:32:53.484Z,31.67
2023-08-03T19:35:23.878Z,31.66
2023-08-03T19:37:54.260Z,31.67
2023-08-03T19:40:24.841Z,31.67
2023-08-03T19:42:56.450Z,31.65
2023-08-03T19:45:27.043Z,31.69
2023-08-03T19:47:58.729Z,31.59
2023-08-03T19:50:30.414Z,31.62
2023-08-03T19:55:44.735Z,31.65
2023-08-03T19:58:15.570Z,31.63
2023-08-03T20:03:23.171Z,31.64
2023-08-03T20:08:46.752Z,31.67
2023-08-03T20:11:17.324Z,31.61
2023-08-03T20:21:27.731Z,31.61
2023-08-03T20:23:58.316Z,31.64
2023-08-03T20:26:35.469Z,31.64
2023-08-03T20:29:21.399Z,31.59
2023-08-03T20:31:52.084Z,31.62
2023-08-03T20:34:22.504Z,31.62
2023-08-03T20:36:52.966Z,31.58
2023-08-03T20:39:35.033Z,31.56
2023-08-03T20:49:49.620Z,31.61
2023-08-03T20:52:20.123Z,31.61
2023-08-03T20:54:50.499Z,31.60
2023-08-03T20:57:22.269Z,31.61
2023-08-03T20:59:53.078Z,31.58
2023-08-03T21:02:24.280Z,31.62
2023-08-03T21:04:54.660Z,31.58
2023-08-03T21:07:25.086Z,31.62
2023-08-03T21:12:29.128Z,31.58
2023-08-03T21:15:00.043Z,31.59
2023-08-03T21:17:30.533Z,31.59
2023-08-03T21:20:06.119Z,31.59
2023-08-03T21:22:36.418Z,31.58
2023-08-03T21:25:07.100Z,31.57
2023-08-03T21:27:37.397Z,31.58
2023-08-03T21:30:08.380Z,31.56
2023-08-03T21:35:13.949Z,31.58
2023-08-03T21:37:48.091Z,31.60
2023-08-03T21:40:18.648Z,31.56
2023-08-03T21:42:50.008Z,31.59
2023-08-03T21:45:20.510Z,31.60
2023-08-03T21:47:50.885Z,31.58
2023-08-03T21:50:21.519Z,31.57
2023-08-03T21:52:51.836Z,31.57
2023-08-03T21:55:22.644Z,31.58
2023-08-03T21:57:52.810Z,31.56
2023-08-03T22:00:23.916Z,31.57
2023-08-03T22:02:54.374Z,31.56
2023-08-03T22:05:26.098Z,31.56
2023-08-03T22:07:56.470Z,31.55
2023-08-03T22:10:27.670Z,31.52
2023-08-03T22:12:58.051Z,31.59
2023-08-03T22:15:28.756Z,31.53
2023-08-03T22:17:59.381Z,31.50
2023-08-03T22:20:31.184Z,31.53
2023-08-03T22:23:01.894Z,31.55
2023-08-03T22:25:32.324Z,31.55
2023-08-03T22:28:02.781Z,31.54
2023-08-03T22:30:33.443Z,31.55
2023-08-03T22:33:03.938Z,31.55
2023-08-03T22:35:34.712Z,31.60
2023-08-03T22:38:05.426Z,31.52
2023-08-03T22:40:36.167Z,31.54
2023-08-03T22:43:06.709Z,31.55
2023-08-03T22:45:42.135Z,31.60
2023-08-03T22:48:12.739Z,31.60
2023-08-03T22:50:43.298Z,31.61
2023-08-03T22:53:13.712Z,31.59
2023-08-03T22:55:44.101Z,31.56
2023-08-03T22:58:45.885Z,31.50
2023-08-03T23:01:21.019Z,31.49
2023-08-03T23:03:52.201Z,31.46
2023-08-03T23:06:25.422Z,31.41
2023-08-03T23:08:55.829Z,31.34
2023-08-03T23:11:26.288Z,31.35
2023-08-03T23:14:01.470Z,31.32
2023-08-03T23:16:32.020Z,31.33
2023-08-03T23:19:02.587Z,31.35
2023-08-03T23:21:33.067Z,31.35
2023-08-03T23:24:03.442Z,31.31
2023-08-03T23:26:33.979Z,31.32
2023-08-03T23:29:04.246Z,31.28
2023-08-03T23:31:35.530Z,31.27
2023-08-03T23:34:06.593Z,31.27
2023-08-03T23:36:37.079Z,31.28
2023-08-03T23:39:07.843Z,31.27
2023-08-03T23:41:38.307Z,31.29
2023-08-03T23:44:08.627Z,31.26
2023-08-03T23:46:38.974Z,31.27
2023-08-03T23:49:09.320Z,31.25
2023-08-03T23:51:39.597Z,31.24
2023-08-03T23:54:10.035Z,31.23
2023-08-03T23:56:40.306Z,31.22
2023-08-03T23:59:10.735Z,31.28
